Maroudio — V7BB7 — position and weather

sailwx.info

Track history (hours):
 
Tides and Currents Weather Stations Pressure Air Temp Water Temp Dewpoint Dewpoint Depression Visibility Wind Speed Wind Dir Waves Ship Positions

Maroudio

Last reported at 2017-Dec-14 01:11 UTC. Time now 2017-Dec-16 15:04 UTC.
Position N 35°51' E 032°23'.

Length 190 m.

Type: Cargo ship. MMSI: 538007262.

Date/timePositionNaut miles runAvg speedWind from/ knotsBaromVisibWave heightAir tempDewpointWater temp
2017-Dec-14 01:11N 35°51' E 032°23'1013.1
2017-Dec-14 00:24N 35°51' E 032°10'2313.2
2017-Dec-13 22:41N 35°50' E 031°42'313.2
2017-Dec-13 22:25N 35°50' E 031°38'813.5
2017-Dec-13 21:51N 35°50' E 031°28'513.3
2017-Dec-13 21:30N 35°50' E 031°22'713.3
2017-Dec-13 21:00N 35°50' E 031°14'1413.2
2017-Dec-13 19:59N 35°50' E 030°58'612.9
2017-Dec-13 19:30N 35°50' E 030°50'612.9
2017-Dec-13 19:00N 35°50' E 030°42'613.0
2017-Dec-13 18:30N 35°50' E 030°34'712.9
2017-Dec-13 18:00N 35°50' E 030°26'17313.1
2017-Dec-13 04:46N 36°01' E 026°53'413.5
2017-Dec-13 04:29N 36°02' E 026°48'613.3
2017-Dec-13 04:00N 36°04' E 026°41'713.4
2017-Dec-13 03:30N 36°06' E 026°33'713.5
2017-Dec-13 03:00N 36°07' E 026°24'713.6
2017-Dec-13 02:30N 36°08' E 026°16'713.9
2017-Dec-13 02:00N 36°09' E 026°08'713.8
2017-Dec-13 01:30N 36°09' E 025°59'713.2
2017-Dec-13 01:00N 36°09' E 025°51'713.1
2017-Dec-13 00:29N 36°09' E 025°42'613.5
2017-Dec-13 00:00N 36°09' E 025°34'713.5
2017-Dec-12 23:30N 36°09' E 025°26'713.4
2017-Dec-12 23:00N 36°09' E 025°18'713.5
2017-Dec-12 22:30N 36°10' E 025°09'713.5
2017-Dec-12 22:00N 36°10' E 025°01'713.6
2017-Dec-12 21:30N 36°11' E 024°53'713.7
2017-Dec-12 21:00N 36°12' E 024°44'713.7
2017-Dec-12 20:30N 36°13' E 024°36'713.2
2017-Dec-12 20:00N 36°14' E 024°28'713.1
2017-Dec-12 19:30N 36°15' E 024°20'713.3
2017-Dec-12 19:00N 36°16' E 024°11'713.4
2017-Dec-12 18:30N 36°16' E 024°03'713.1
2017-Dec-12 18:01N 36°17' E 023°55'613.0
2017-Dec-12 17:30N 36°18' E 023°47'713.1
2017-Dec-12 17:00N 36°19' E 023°39'3713.3
2017-Dec-12 14:14N 36°24' E 022°54'313.7
2017-Dec-12 13:59N 36°24' E 022°50'713.6
2017-Dec-12 13:30N 36°23' E 022°41'813.0
2017-Dec-12 12:51N 36°22' E 022°31'512.8
2017-Dec-12 12:30N 36°22' E 022°25'713.3
2017-Dec-12 11:57N 36°21' E 022°16'  
2017-Dec-04 01:34N 39°16' W 026°34'212.7
2017-Dec-04 01:27N 39°16' W 026°36'  
Track history (hours):
 
Tides and Currents Weather Stations Pressure Air Temp Water Temp Dewpoint Dewpoint Depression Visibility Wind Speed Wind Dir Waves Ship Positions

Maroudio

Last reported at 2017-Dec-14 01:11 UTC. Time now 2017-Dec-16 15:04 UTC.
Position N 35°51' E 032°23'.

Length 190 m.

Type: Cargo ship. MMSI: 538007262.

Date/timePositionNaut miles runAvg speedWind from/ knotsBaromVisibWave heightAir tempDewpointWater temp
2017-Dec-14 01:11N 35°51' E 032°23'1013.1
2017-Dec-14 00:24N 35°51' E 032°10'2313.2
2017-Dec-13 22:41N 35°50' E 031°42'313.2
2017-Dec-13 22:25N 35°50' E 031°38'813.5
2017-Dec-13 21:51N 35°50' E 031°28'513.3
2017-Dec-13 21:30N 35°50' E 031°22'713.3
2017-Dec-13 21:00N 35°50' E 031°14'1413.2
2017-Dec-13 19:59N 35°50' E 030°58'612.9
2017-Dec-13 19:30N 35°50' E 030°50'612.9
2017-Dec-13 19:00N 35°50' E 030°42'613.0
2017-Dec-13 18:30N 35°50' E 030°34'712.9
2017-Dec-13 18:00N 35°50' E 030°26'17313.1
2017-Dec-13 04:46N 36°01' E 026°53'413.5
2017-Dec-13 04:29N 36°02' E 026°48'613.3
2017-Dec-13 04:00N 36°04' E 026°41'713.4
2017-Dec-13 03:30N 36°06' E 026°33'713.5
2017-Dec-13 03:00N 36°07' E 026°24'713.6
2017-Dec-13 02:30N 36°08' E 026°16'713.9
2017-Dec-13 02:00N 36°09' E 026°08'713.8
2017-Dec-13 01:30N 36°09' E 025°59'713.2
2017-Dec-13 01:00N 36°09' E 025°51'713.1
2017-Dec-13 00:29N 36°09' E 025°42'613.5
2017-Dec-13 00:00N 36°09' E 025°34'713.5
2017-Dec-12 23:30N 36°09' E 025°26'713.4
2017-Dec-12 23:00N 36°09' E 025°18'713.5
2017-Dec-12 22:30N 36°10' E 025°09'713.5
2017-Dec-12 22:00N 36°10' E 025°01'713.6
2017-Dec-12 21:30N 36°11' E 024°53'713.7
2017-Dec-12 21:00N 36°12' E 024°44'713.7
2017-Dec-12 20:30N 36°13' E 024°36'713.2
2017-Dec-12 20:00N 36°14' E 024°28'713.1
2017-Dec-12 19:30N 36°15' E 024°20'713.3
2017-Dec-12 19:00N 36°16' E 024°11'713.4
2017-Dec-12 18:30N 36°16' E 024°03'713.1
2017-Dec-12 18:01N 36°17' E 023°55'613.0
2017-Dec-12 17:30N 36°18' E 023°47'713.1
2017-Dec-12 17:00N 36°19' E 023°39'3713.3
2017-Dec-12 14:14N 36°24' E 022°54'313.7
2017-Dec-12 13:59N 36°24' E 022°50'713.6
2017-Dec-12 13:30N 36°23' E 022°41'813.0
2017-Dec-12 12:51N 36°22' E 022°31'512.8
2017-Dec-12 12:30N 36°22' E 022°25'713.3
2017-Dec-12 11:57N 36°21' E 022°16'  
2017-Dec-04 01:34N 39°16' W 026°34'212.7
2017-Dec-04 01:27N 39°16' W 026°36'  

Dump ship's entire track history